createdAt,value
2023-03-15T00:00:08.094Z,101189.09
2023-03-15T00:02:10.430Z,101196.59
2023-03-15T00:04:14.087Z,101204.34
2023-03-15T00:06:16.412Z,101204.47
2023-03-15T00:08:18.771Z,101205.16
2023-03-15T00:10:21.136Z,101205.81
2023-03-15T00:12:23.352Z,101217.03
2023-03-15T00:14:25.666Z,101222.06
2023-03-15T00:16:27.672Z,101222.88
2023-03-15T00:18:30.295Z,101221.06
2023-03-15T00:20:33.419Z,101228.94
2023-03-15T00:22:35.981Z,101236.41
2023-03-15T00:24:38.479Z,101233.47
2023-03-15T00:26:40.658Z,101236.91
2023-03-15T00:28:43.075Z,101244.34
2023-03-15T00:30:46.075Z,101244.41
2023-03-15T00:32:48.204Z,101243.09
2023-03-15T00:34:50.216Z,101245.84
2023-03-15T00:36:53.842Z,101251.66
2023-03-15T00:38:57.418Z,101263.63
2023-03-15T00:41:04.100Z,101258.50
2023-03-15T00:43:06.139Z,101256.25
2023-03-15T00:45:08.851Z,101261.28
2023-03-15T00:47:12.056Z,101264.56
2023-03-15T00:49:14.011Z,101272.06
2023-03-15T00:51:18.716Z,101272.94
2023-03-15T00:53:22.674Z,101276.81
2023-03-15T00:55:24.641Z,101279.66
2023-03-15T00:57:26.611Z,101282.88
2023-03-15T00:59:29.831Z,101277.75
2023-03-15T01:01:32.102Z,101273.28
2023-03-15T01:03:36.759Z,101273.28
2023-03-15T01:05:39.342Z,101273.84
2023-03-15T01:07:41.483Z,101273.22
2023-03-15T01:09:46.294Z,101282.34
2023-03-15T01:11:49.410Z,101283.09
2023-03-15T01:13:52.688Z,101289.38
2023-03-15T01:15:54.778Z,101290.97
2023-03-15T01:17:57.220Z,101287.59
2023-03-15T01:20:00.045Z,101292.56
2023-03-15T01:22:02.135Z,101285.03
2023-03-15T01:24:04.312Z,101286.72
2023-03-15T01:26:08.308Z,101289.09
2023-03-15T01:28:11.737Z,101297.28
2023-03-15T01:30:14.219Z,101292.56
2023-03-15T01:32:16.243Z,101303.84
2023-03-15T01:34:18.451Z,101299.81
2023-03-15T01:36:21.002Z,101295.56
2023-03-15T01:38:23.086Z,101294.41
2023-03-15T01:40:25.122Z,101308.22
2023-03-15T01:42:27.157Z,101305.97
2023-03-15T01:44:51.903Z,101313.13
2023-03-15T01:46:53.933Z,101316.69
2023-03-15T01:48:59.819Z,101315.19
2023-03-15T01:51:07.990Z,101316.25
2023-03-15T01:53:11.171Z,101317.19
2023-03-15T01:55:17.200Z,101323.06
2023-03-15T01:57:27.113Z,101326.41
2023-03-15T01:59:35.351Z,101328.84
2023-03-15T02:01:45.709Z,101328.31
2023-03-15T02:03:53.159Z,101341.03
2023-03-15T02:06:01.404Z,101344.13
2023-03-15T02:08:07.177Z,101349.28
2023-03-15T02:10:12.602Z,101333.59
2023-03-15T02:12:14.773Z,101348.72
2023-03-15T02:14:16.993Z,101351.41
2023-03-15T02:16:19.351Z,101347.44
2023-03-15T02:18:22.128Z,101342.13
2023-03-15T02:20:30.713Z,101337.16
2023-03-15T02:22:42.631Z,101338.75
2023-03-15T02:24:49.374Z,101338.25
2023-03-15T02:26:55.805Z,101342.56
2023-03-15T02:28:57.975Z,101339.06
2023-03-15T02:31:00.453Z,101343.44
2023-03-15T02:33:06.902Z,101344.00
2023-03-15T02:35:09.409Z,101339.56
2023-03-15T02:37:11.369Z,101350.53
2023-03-15T02:39:17.764Z,101354.91
2023-03-15T02:41:25.890Z,101357.53
2023-03-15T02:43:31.584Z,101356.44
2023-03-15T02:45:35.639Z,101363.25
2023-03-15T02:47:38.911Z,101356.38
2023-03-15T02:49:45.415Z,101358.84
2023-03-15T02:51:47.520Z,101357.50
2023-03-15T02:53:49.751Z,101361.53
2023-03-15T02:55:51.984Z,101366.44
2023-03-15T02:57:55.121Z,101366.59
2023-03-15T02:59:57.470Z,101373.94
2023-03-15T03:01:59.790Z,101363.78
2023-03-15T03:04:01.885Z,101367.31
2023-03-15T03:06:04.020Z,101371.38
2023-03-15T03:08:06.796Z,101374.72
2023-03-15T03:10:10.409Z,101369.06
2023-03-15T03:12:12.532Z,101369.78
2023-03-15T03:14:14.637Z,101374.59
2023-03-15T03:16:16.633Z,101366.88
2023-03-15T03:18:18.721Z,101360.94
2023-03-15T03:20:21.012Z,101355.44
2023-03-15T03:22:24.862Z,101363.84
2023-03-15T03:24:27.031Z,101361.28
2023-03-15T03:26:32.935Z,101361.84
2023-03-15T03:28:34.956Z,101362.50
2023-03-15T03:30:37.142Z,101371.78
2023-03-15T03:32:41.376Z,101370.72
2023-03-15T03:34:48.741Z,101386.78
2023-03-15T03:36:50.874Z,101385.25
2023-03-15T03:38:54.061Z,101390.28
2023-03-15T03:40:56.206Z,101387.78
2023-03-15T03:42:58.199Z,101388.31
2023-03-15T03:45:00.280Z,101393.50
2023-03-15T03:47:02.468Z,101390.88
2023-03-15T03:49:04.429Z,101406.34
2023-03-15T03:51:06.624Z,101408.66
2023-03-15T03:53:08.848Z,101422.13
2023-03-15T03:55:13.856Z,101422.06
2023-03-15T03:57:15.852Z,101423.81
2023-03-15T03:59:18.042Z,101422.94
2023-03-15T04:01:22.304Z,101431.06
2023-03-15T04:03:27.439Z,101423.97
2023-03-15T04:05:30.140Z,101418.63
2023-03-15T04:07:32.089Z,101410.63
2023-03-15T04:09:37.667Z,101415.25
2023-03-15T04:11:42.761Z,101419.50
2023-03-15T04:13:45.857Z,101421.34
2023-03-15T04:15:48.568Z,101419.75
2023-03-15T04:17:56.153Z,101415.34
2023-03-15T04:19:59.467Z,101423.91
2023-03-15T04:22:06.874Z,101428.22
2023-03-15T04:24:09.065Z,101432.59
2023-03-15T04:26:11.260Z,101428.09
2023-03-15T04:28:13.381Z,101425.00
2023-03-15T04:30:15.527Z,101413.59
2023-03-15T04:32:18.247Z,101416.72
2023-03-15T04:34:20.460Z,101415.59
2023-03-15T04:36:23.980Z,101419.28
2023-03-15T04:38:27.083Z,101414.63
2023-03-15T04:40:29.995Z,101418.16
2023-03-15T04:42:32.111Z,101423.56
2023-03-15T04:44:34.098Z,101421.28
2023-03-15T04:46:36.206Z,101423.81
2023-03-15T04:48:38.620Z,101423.16
2023-03-15T04:50:40.942Z,101419.81
2023-03-15T04:52:43.072Z,101420.53
2023-03-15T04:54:45.110Z,101424.69
2023-03-15T04:56:47.121Z,101436.72
2023-03-15T04:58:49.116Z,101439.28
2023-03-15T05:00:52.921Z,101431.88
2023-03-15T05:02:55.277Z,101430.03
2023-03-15T05:04:57.308Z,101439.38
2023-03-15T05:06:59.253Z,101434.25
2023-03-15T05:09:01.244Z,101430.75
2023-03-15T05:11:04.425Z,101428.13
2023-03-15T05:13:06.516Z,101418.78
2023-03-15T05:15:09.911Z,101415.22
2023-03-15T05:17:11.984Z,101420.41
2023-03-15T05:19:14.300Z,101428.19
2023-03-15T05:21:16.325Z,101430.56
2023-03-15T05:23:18.350Z,101428.28
2023-03-15T05:25:20.299Z,101427.88
2023-03-15T05:27:22.383Z,101432.63
2023-03-15T05:29:24.586Z,101441.28
2023-03-15T05:31:26.865Z,101442.69
2023-03-15T05:33:28.851Z,101448.13
2023-03-15T05:35:31.531Z,101442.03
2023-03-15T05:37:33.928Z,101445.66
2023-03-15T05:39:36.142Z,101444.38
2023-03-15T05:41:38.719Z,101452.50
2023-03-15T05:43:40.779Z,101453.38
2023-03-15T05:45:44.892Z,101465.00
2023-03-15T05:47:47.023Z,101456.41
2023-03-15T05:49:49.984Z,101459.28
2023-03-15T05:51:51.979Z,101461.50
2023-03-15T05:53:54.076Z,101464.63
2023-03-15T05:55:56.054Z,101462.38
2023-03-15T05:57:58.082Z,101466.78
2023-03-15T06:00:00.189Z,101465.72
2023-03-15T06:02:02.465Z,101467.47
2023-03-15T06:04:05.403Z,101469.50
2023-03-15T06:06:07.630Z,101465.88
2023-03-15T06:08:10.251Z,101476.38
2023-03-15T06:10:12.905Z,101473.69
2023-03-15T06:12:15.341Z,101482.13
2023-03-15T06:14:17.395Z,101485.25
2023-03-15T06:16:19.750Z,101485.84
2023-03-15T06:18:21.788Z,101483.94
2023-03-15T06:20:23.820Z,101490.63
2023-03-15T06:22:25.866Z,101487.44
2023-03-15T06:24:27.951Z,101509.59
2023-03-15T06:26:30.056Z,101508.78
2023-03-15T06:28:32.659Z,101514.25
2023-03-15T06:30:35.585Z,101512.31
2023-03-15T06:32:37.786Z,101518.41
2023-03-15T06:34:39.923Z,101518.47
2023-03-15T06:36:42.640Z,101520.22
2023-03-15T06:38:44.799Z,101517.75
2023-03-15T06:40:46.930Z,101519.63
2023-03-15T06:42:49.291Z,101522.00
2023-03-15T06:44:51.393Z,101524.81
2023-03-15T06:46:53.561Z,101518.75
2023-03-15T06:48:55.713Z,101520.69
2023-03-15T06:50:58.028Z,101527.19
2023-03-15T06:53:00.153Z,101527.00
2023-03-15T06:55:02.342Z,101531.94
2023-03-15T06:57:04.549Z,101527.19
2023-03-15T06:59:07.617Z,101525.69
2023-03-15T07:01:18.454Z,101534.38
2023-03-15T07:03:22.576Z,101526.56
2023-03-15T07:05:25.028Z,101528.47
2023-03-15T07:07:27.356Z,101541.06
2023-03-15T07:09:29.747Z,101541.34
2023-03-15T07:11:32.924Z,101544.25
2023-03-15T07:13:35.394Z,101549.56
2023-03-15T07:15:37.989Z,101551.50
2023-03-15T07:17:41.645Z,101550.34
2023-03-15T07:19:55.747Z,101551.09
2023-03-15T07:21:59.309Z,101550.34
2023-03-15T07:24:02.484Z,101546.19
2023-03-15T07:26:05.308Z,101554.16
2023-03-15T07:28:07.876Z,101562.75
2023-03-15T07:30:11.451Z,101573.41
2023-03-15T07:32:13.975Z,101568.13
2023-03-15T07:34:16.512Z,101560.69
2023-03-15T07:36:18.728Z,101562.44
2023-03-15T07:38:23.433Z,101559.53
2023-03-15T07:40:26.806Z,101566.66
2023-03-15T07:42:28.967Z,101564.81
2023-03-15T07:44:31.094Z,101568.69
2023-03-15T07:46:34.534Z,101564.03
2023-03-15T07:48:36.791Z,101571.41
2023-03-15T07:50:40.556Z,101568.56
2023-03-15T07:52:42.969Z,101566.94
2023-03-15T07:54:45.187Z,101565.28
2023-03-15T07:56:47.414Z,101568.47
2023-03-15T07:58:49.645Z,101566.78
2023-03-15T08:00:55.426Z,101558.31
2023-03-15T08:02:58.105Z,101555.16
2023-03-15T08:05:00.656Z,101553.19
2023-03-15T08:07:03.224Z,101555.06
2023-03-15T08:09:06.972Z,101545.38
2023-03-15T08:11:09.595Z,101544.22
2023-03-15T08:13:13.137Z,101538.97
2023-03-15T08:15:16.262Z,101550.28
2023-03-15T08:17:19.144Z,101546.78
2023-03-15T08:19:22.580Z,101548.63
2023-03-15T08:21:26.159Z,101550.31
2023-03-15T08:23:28.456Z,101551.69
2023-03-15T08:25:31.409Z,101554.22
2023-03-15T08:27:33.828Z,101557.28
2023-03-15T08:29:36.529Z,101552.69
2023-03-15T08:31:39.779Z,101559.00
2023-03-15T08:33:42.497Z,101558.34
2023-03-15T08:35:44.821Z,101560.50
2023-03-15T08:37:48.236Z,101554.47
2023-03-15T08:39:58.185Z,101558.47
2023-03-15T08:42:00.621Z,101561.94
2023-03-15T08:44:03.080Z,101564.81
2023-03-15T08:46:06.007Z,101564.69
2023-03-15T08:48:11.589Z,101564.41
2023-03-15T08:50:15.809Z,101561.31
2023-03-15T08:52:18.585Z,101561.63
2023-03-15T08:54:22.016Z,101560.06
2023-03-15T08:56:24.520Z,101560.75
2023-03-15T08:58:27.095Z,101563.31
2023-03-15T09:00:29.538Z,101557.00
2023-03-15T09:02:32.858Z,101560.03
2023-03-15T09:04:35.452Z,101563.50
2023-03-15T09:06:38.107Z,101559.06
2023-03-15T09:08:40.467Z,101556.53
2023-03-15T09:10:54.747Z,101556.69
2023-03-15T09:12:57.150Z,101561.00
2023-03-15T09:14:59.856Z,101554.63
2023-03-15T09:17:03.874Z,101561.25
2023-03-15T09:19:06.197Z,101552.78
2023-03-15T09:21:08.445Z,101547.47
2023-03-15T09:23:11.212Z,101553.59
2023-03-15T09:25:13.538Z,101555.56
2023-03-15T09:27:27.298Z,101549.72
2023-03-15T09:29:30.019Z,101556.31
2023-03-15T09:31:33.475Z,101564.72
2023-03-15T09:33:35.780Z,101563.22
2023-03-15T09:35:38.222Z,101563.84
2023-03-15T09:37:40.582Z,101563.41
2023-03-15T09:39:43.071Z,101565.84
2023-03-15T09:41:50.361Z,101561.06
2023-03-15T09:44:08.854Z,101561.94
2023-03-15T09:46:15.444Z,101565.22
2023-03-15T09:48:26.055Z,101570.34
2023-03-15T09:50:35.581Z,101571.41
2023-03-15T09:52:45.068Z,101568.72
2023-03-15T09:54:54.813Z,101568.66
2023-03-15T09:57:03.736Z,101573.41
2023-03-15T09:59:08.014Z,101569.63
2023-03-15T10:01:15.456Z,101581.63
2023-03-15T10:03:37.442Z,101573.06
2023-03-15T10:05:56.561Z,101569.22
2023-03-15T10:08:07.412Z,101571.97
2023-03-15T10:10:19.050Z,101571.84
2023-03-15T10:12:27.981Z,101566.03
2023-03-15T10:14:35.307Z,101579.16
2023-03-15T10:16:43.936Z,101574.19
2023-03-15T10:18:51.089Z,101564.38
2023-03-15T10:21:07.794Z,101564.00
2023-03-15T10:23:20.972Z,101570.50
2023-03-15T10:25:29.054Z,101559.88
2023-03-15T10:27:37.888Z,101561.41
2023-03-15T10:29:42.870Z,101563.69
2023-03-15T10:32:09.796Z,101561.59
2023-03-15T10:34:55.857Z,101566.63
2023-03-15T10:40:33.238Z,101558.84
2023-03-15T10:42:37.360Z,101562.66
2023-03-15T10:44:41.469Z,101574.34
2023-03-15T10:47:07.039Z,101566.13
2023-03-15T10:49:16.493Z,101572.59
2023-03-15T10:51:25.483Z,101576.66
2023-03-15T10:53:27.644Z,101578.88
2023-03-15T10:55:37.222Z,101577.31
2023-03-15T10:57:51.513Z,101572.13
2023-03-15T10:59:59.393Z,101572.59
2023-03-15T11:02:08.208Z,101562.03
2023-03-15T11:04:14.343Z,101577.91
2023-03-15T11:06:21.473Z,101569.03
2023-03-15T11:08:36.420Z,101570.94
2023-03-15T11:10:38.459Z,101572.66
2023-03-15T11:12:40.765Z,101566.94
2023-03-15T11:14:47.914Z,101558.00
2023-03-15T11:16:53.334Z,101560.09
2023-03-15T11:19:01.812Z,101557.38
2023-03-15T11:21:10.719Z,101557.63
2023-03-15T11:23:18.703Z,101553.53
2023-03-15T11:25:25.050Z,101552.41
2023-03-15T11:27:28.821Z,101554.16
2023-03-15T11:29:34.707Z,101554.41
2023-03-15T11:31:36.861Z,101546.41
2023-03-15T11:33:46.620Z,101542.66
2023-03-15T11:35:50.404Z,101551.22
2023-03-15T11:38:06.252Z,101542.97
2023-03-15T11:40:15.540Z,101560.41
2023-03-15T11:42:27.757Z,101554.00
2023-03-15T11:44:37.805Z,101553.50
2023-03-15T11:46:46.137Z,101553.72
2023-03-15T11:48:56.948Z,101554.22
2023-03-15T11:51:01.491Z,101553.22
2023-03-15T11:53:07.171Z,101541.84
2023-03-15T11:55:18.725Z,101542.31
2023-03-15T11:57:26.974Z,101541.56
2023-03-15T11:59:33.738Z,101549.31
2023-03-15T12:01:36.193Z,101531.56
2023-03-15T12:03:39.534Z,101540.47
2023-03-15T12:05:44.624Z,101531.81
2023-03-15T12:08:07.345Z,101546.25
2023-03-15T12:10:15.976Z,101536.81
2023-03-15T12:12:25.321Z,101535.13
2023-03-15T12:14:31.060Z,101538.81
2023-03-15T12:16:41.921Z,101538.19
2023-03-15T12:18:45.919Z,101529.22
2023-03-15T12:20:53.772Z,101529.06
2023-03-15T12:23:02.567Z,101519.72
2023-03-15T12:25:12.287Z,101515.53
2023-03-15T12:27:17.266Z,101504.72
2023-03-15T12:29:24.662Z,101499.13
2023-03-15T12:31:42.770Z,101503.91
2023-03-15T12:33:51.540Z,101491.69
2023-03-15T12:36:01.536Z,101485.75
2023-03-15T12:38:13.928Z,101485.97
2023-03-15T12:40:20.229Z,101497.56
2023-03-15T12:42:28.669Z,101484.66
2023-03-15T12:44:34.592Z,101489.53
2023-03-15T12:46:38.125Z,101477.84
2023-03-15T12:49:03.289Z,101495.75
2023-03-15T12:51:09.744Z,101495.88
2023-03-15T12:53:18.571Z,101488.00
2023-03-15T12:55:22.014Z,101475.81
2023-03-15T12:57:30.392Z,101472.69
2023-03-15T12:59:43.995Z,101479.13
2023-03-15T13:01:46.922Z,101472.03
2023-03-15T13:03:54.572Z,101474.28
2023-03-15T13:06:04.309Z,101472.59
2023-03-15T13:08:28.083Z,101471.31
2023-03-15T13:10:37.036Z,101480.81
2023-03-15T13:12:46.253Z,101471.50
2023-03-15T13:14:52.483Z,101482.47
2023-03-15T13:17:02.488Z,101472.09
2023-03-15T13:19:11.043Z,101471.31
2023-03-15T13:21:21.223Z,101475.16
2023-03-15T13:23:27.044Z,101472.72
2023-03-15T13:25:39.661Z,101462.31
2023-03-15T13:27:48.309Z,101473.47
2023-03-15T13:29:51.219Z,101479.72
2023-03-15T13:31:59.995Z,101475.63
2023-03-15T13:34:08.688Z,101472.50
2023-03-15T13:36:13.393Z,101469.63
2023-03-15T13:38:27.221Z,101478.91
2023-03-15T13:40:29.503Z,101470.63
2023-03-15T13:42:32.177Z,101451.97
2023-03-15T13:44:34.651Z,101457.03
2023-03-15T13:46:37.182Z,101461.09
2023-03-15T13:48:44.801Z,101448.97
2023-03-15T13:50:50.474Z,101448.22
2023-03-15T13:52:52.756Z,101443.47
2023-03-15T13:54:55.773Z,101440.19
2023-03-15T13:57:02.332Z,101430.13
2023-03-15T13:59:06.860Z,101427.56
2023-03-15T14:01:12.341Z,101419.72
2023-03-15T14:03:24.260Z,101414.91
2023-03-15T14:05:30.837Z,101414.03
2023-03-15T14:07:36.537Z,101411.56
2023-03-15T14:09:40.416Z,101412.59
2023-03-15T14:11:45.046Z,101406.84
2023-03-15T14:13:49.945Z,101404.59
2023-03-15T14:15:59.450Z,101410.50
2023-03-15T14:18:10.325Z,101394.84
2023-03-15T14:20:17.242Z,101404.91
2023-03-15T14:22:20.185Z,101400.19
2023-03-15T14:24:28.222Z,101405.03
2023-03-15T14:26:31.866Z,101390.75
2023-03-15T14:28:34.994Z,101404.53
2023-03-15T14:30:38.565Z,101395.31
2023-03-15T14:32:54.211Z,101389.56
2023-03-15T14:35:02.326Z,101383.56
2023-03-15T14:37:28.260Z,101383.50
2023-03-15T14:39:39.982Z,101388.41
2023-03-15T14:41:42.602Z,101393.72
2023-03-15T14:43:45.520Z,101387.53
2023-03-15T14:45:49.638Z,101377.34
2023-03-15T14:48:09.771Z,101381.81
2023-03-15T14:50:16.258Z,101374.66
2023-03-15T14:52:18.704Z,101371.44
2023-03-15T14:54:20.975Z,101377.59
2023-03-15T14:56:24.690Z,101375.03
2023-03-15T14:58:27.064Z,101373.69
2023-03-15T15:00:29.909Z,101380.06
2023-03-15T15:02:34.938Z,101376.88
2023-03-15T15:04:38.983Z,101372.72
2023-03-15T15:06:54.001Z,101373.38
2023-03-15T15:08:59.510Z,101370.44
2023-03-15T15:11:02.844Z,101366.00
2023-03-15T15:13:07.391Z,101361.47
2023-03-15T15:15:18.203Z,101370.66
2023-03-15T15:17:20.621Z,101361.88
2023-03-15T15:19:26.261Z,101368.25
2023-03-15T15:21:33.869Z,101371.59
2023-03-15T15:23:56.977Z,101364.41
2023-03-15T15:26:04.613Z,101358.97
2023-03-15T15:28:12.212Z,101338.63
2023-03-15T15:30:26.173Z,101335.72
2023-03-15T15:32:29.019Z,101341.13
2023-03-15T15:34:34.658Z,101343.00
2023-03-15T15:36:40.264Z,101343.47
2023-03-15T15:38:43.372Z,101338.03
2023-03-15T15:40:45.772Z,101345.78
2023-03-15T15:42:49.145Z,101339.66
2023-03-15T15:44:51.941Z,101327.31
2023-03-15T15:46:55.218Z,101336.13
2023-03-15T15:48:59.155Z,101332.50
2023-03-15T15:51:01.711Z,101334.84
2023-03-15T15:53:06.909Z,101338.34
2023-03-15T15:55:12.669Z,101321.59
2023-03-15T15:57:16.102Z,101323.94
2023-03-15T15:59:19.653Z,101320.34
2023-03-15T16:02:06.964Z,101324.81
2023-03-15T16:04:11.191Z,101322.53
2023-03-15T16:06:18.846Z,101325.81
2023-03-15T16:08:25.236Z,101331.69
2023-03-15T16:10:35.884Z,101329.06
2023-03-15T16:12:38.529Z,101321.88
2023-03-15T16:14:41.938Z,101327.78
2023-03-15T16:16:44.846Z,101337.41
2023-03-15T16:18:47.716Z,101326.75
2023-03-15T16:20:51.582Z,101329.47
2023-03-15T16:22:59.550Z,101321.47
2023-03-15T16:25:14.502Z,101322.94
2023-03-15T16:27:21.796Z,101318.28
2023-03-15T16:29:27.688Z,101319.16
2023-03-15T16:31:36.446Z,101312.34
2023-03-15T16:33:39.261Z,101312.16
2023-03-15T16:35:42.952Z,101308.72
2023-03-15T16:37:46.931Z,101302.69
2023-03-15T16:39:51.351Z,101310.75
2023-03-15T16:41:55.554Z,101308.06
2023-03-15T16:43:58.142Z,101311.97
2023-03-15T16:46:01.605Z,101311.22
2023-03-15T16:48:18.444Z,101313.56
2023-03-15T16:50:22.571Z,101303.41
2023-03-15T16:52:27.037Z,101295.34
2023-03-15T16:54:40.910Z,101296.28
2023-03-15T16:56:45.807Z,101299.09
2023-03-15T16:58:52.689Z,101288.53
2023-03-15T17:00:56.446Z,101294.06
2023-03-15T17:03:01.209Z,101285.44
2023-03-15T17:05:04.534Z,101292.25
2023-03-15T17:07:11.727Z,101289.78
2023-03-15T17:09:20.193Z,101281.28
2023-03-15T17:11:23.185Z,101280.47
2023-03-15T17:13:29.459Z,101275.28
2023-03-15T17:15:32.849Z,101277.69
2023-03-15T17:17:36.721Z,101265.91
2023-03-15T17:19:39.601Z,101272.53
2023-03-15T17:25:23.828Z,101273.78
2023-03-15T17:27:34.618Z,101267.78
2023-03-15T17:34:07.219Z,101261.56
2023-03-15T17:36:22.228Z,101258.44
2023-03-15T17:38:43.000Z,101253.47
2023-03-15T17:40:53.605Z,101257.19
2023-03-15T17:42:59.150Z,101251.81
2023-03-15T17:45:05.491Z,101254.53
2023-03-15T17:47:11.602Z,101247.81
2023-03-15T17:49:17.659Z,101250.63
2023-03-15T17:51:24.096Z,101250.84
2023-03-15T17:53:26.696Z,101250.25
2023-03-15T17:55:31.060Z,101248.63
2023-03-15T17:57:33.886Z,101250.22
2023-03-15T17:59:37.497Z,101241.75
2023-03-15T18:01:43.877Z,101251.81
2023-03-15T18:03:47.941Z,101246.06
2023-03-15T18:05:50.502Z,101247.81
2023-03-15T18:07:58.927Z,101241.41
2023-03-15T18:10:01.769Z,101241.25
2023-03-15T18:12:04.787Z,101247.34
2023-03-15T18:14:13.984Z,101243.97
2023-03-15T18:19:36.251Z,101249.00
2023-03-15T18:21:42.073Z,101243.59
2023-03-15T18:23:58.991Z,101243.66
2023-03-15T18:26:03.051Z,101251.31
2023-03-15T18:28:06.676Z,101249.34
2023-03-15T18:30:13.096Z,101252.19
2023-03-15T18:32:17.162Z,101247.97
2023-03-15T18:34:23.114Z,101244.44
2023-03-15T18:36:32.471Z,101238.28
2023-03-15T18:38:36.610Z,101244.28
2023-03-15T18:40:39.291Z,101244.44
2023-03-15T18:42:45.380Z,101242.56
2023-03-15T18:44:48.086Z,101244.13
2023-03-15T18:46:57.070Z,101245.13
2023-03-15T18:49:00.339Z,101243.72
2023-03-15T18:51:02.924Z,101233.88
2023-03-15T18:53:06.380Z,101228.88
2023-03-15T18:55:10.180Z,101227.59
2023-03-15T18:57:13.294Z,101226.53
2023-03-15T18:59:17.148Z,101217.47
2023-03-15T19:01:23.260Z,101224.38
2023-03-15T19:03:25.940Z,101217.63
2023-03-15T19:09:04.348Z,101216.69
2023-03-15T19:11:08.096Z,101214.66
2023-03-15T19:13:09.948Z,101212.84
2023-03-15T19:15:15.234Z,101205.34
2023-03-15T19:17:17.613Z,101202.38
2023-03-15T19:19:19.328Z,101199.03
2023-03-15T19:21:21.084Z,101192.09
2023-03-15T19:23:22.886Z,101192.09
2023-03-15T19:25:24.588Z,101185.16
2023-03-15T19:27:26.902Z,101182.53
2023-03-15T19:29:28.785Z,101179.34
2023-03-15T19:31:30.682Z,101181.84
2023-03-15T19:33:32.756Z,101176.94
2023-03-15T19:35:34.734Z,101173.91
2023-03-15T19:38:05.314Z,101169.13
2023-03-15T19:40:17.285Z,101173.03
2023-03-15T19:42:35.085Z,101173.72
2023-03-15T19:45:06.874Z,101167.28
2023-03-15T19:47:39.528Z,101164.31
2023-03-15T19:50:15.781Z,101152.69
2023-03-15T19:52:40.894Z,101157.06
2023-03-15T19:55:06.763Z,101156.22
2023-03-15T19:57:24.745Z,101175.91
2023-03-15T19:59:53.731Z,101171.41
2023-03-15T20:02:32.659Z,101161.03
2023-03-15T20:04:56.741Z,101156.78
2023-03-15T20:09:48.922Z,101153.66
2023-03-15T20:12:17.178Z,101153.19
2023-03-15T20:14:44.315Z,101147.59
2023-03-15T20:17:18.326Z,101149.22
2023-03-15T20:19:45.865Z,101151.16
2023-03-15T20:22:18.153Z,101147.44
2023-03-15T20:24:44.702Z,101145.84
2023-03-15T20:26:46.500Z,101144.06
2023-03-15T20:28:48.441Z,101143.91
2023-03-15T20:30:50.061Z,101142.81
2023-03-15T20:32:51.963Z,101139.28
2023-03-15T20:34:57.434Z,101141.78
2023-03-15T20:36:59.654Z,101141.50
2023-03-15T20:39:02.403Z,101136.66
2023-03-15T20:41:05.499Z,101137.81
2023-03-15T20:43:07.260Z,101140.47
2023-03-15T20:45:10.360Z,101128.09
2023-03-15T20:47:12.064Z,101127.56
2023-03-15T20:49:15.439Z,101140.47
2023-03-15T20:51:17.148Z,101138.78
2023-03-15T20:53:19.569Z,101134.63
2023-03-15T20:55:21.304Z,101142.59
2023-03-15T20:57:23.160Z,101128.25
2023-03-15T20:59:24.950Z,101128.44
2023-03-15T21:01:26.668Z,101128.63
2023-03-15T21:03:28.551Z,101124.56
2023-03-15T21:05:31.693Z,101128.53
2023-03-15T21:07:34.301Z,101115.31
2023-03-15T21:09:36.254Z,101110.72
2023-03-15T21:11:37.960Z,101114.16
2023-03-15T21:13:40.216Z,101111.13
2023-03-15T21:15:49.522Z,101102.41
2023-03-15T21:18:05.285Z,101090.28
2023-03-15T21:20:07.533Z,101096.38
2023-03-15T21:22:09.564Z,101093.56
2023-03-15T21:24:12.511Z,101092.16
2023-03-15T21:26:14.835Z,101085.53
2023-03-15T21:28:17.140Z,101080.69
2023-03-15T21:30:18.904Z,101072.13
2023-03-15T21:32:21.259Z,101072.72
2023-03-15T21:34:22.976Z,101074.56
2023-03-15T21:36:24.792Z,101070.50
2023-03-15T21:38:28.015Z,101070.16
2023-03-15T21:40:33.986Z,101068.47
2023-03-15T21:42:36.479Z,101072.13
2023-03-15T21:44:40.222Z,101070.16
2023-03-15T21:46:44.756Z,101060.00
2023-03-15T21:48:47.917Z,101055.38
2023-03-15T21:50:53.886Z,101064.81
2023-03-15T21:52:55.886Z,101072.88
2023-03-15T21:54:57.700Z,101068.25
2023-03-15T21:57:00.544Z,101062.56
2023-03-15T21:59:08.700Z,101058.59
2023-03-15T22:01:11.288Z,101060.78
2023-03-15T22:03:17.204Z,101057.25
2023-03-15T22:05:20.537Z,101061.81
2023-03-15T22:07:22.185Z,101059.44
2023-03-15T22:09:24.029Z,101061.91
2023-03-15T22:11:25.791Z,101060.31
2023-03-15T22:13:27.774Z,101052.69
2023-03-15T22:15:29.684Z,101043.09
2023-03-15T22:17:31.724Z,101041.41
2023-03-15T22:19:33.584Z,101050.06
2023-03-15T22:21:35.312Z,101042.81
2023-03-15T22:23:37.016Z,101037.88
2023-03-15T22:25:40.305Z,101020.31
2023-03-15T22:27:42.101Z,101028.72
2023-03-15T22:29:43.903Z,101029.81
2023-03-15T22:31:45.562Z,101023.69
2023-03-15T22:33:47.333Z,101024.78
2023-03-15T22:35:59.032Z,101027.84
2023-03-15T22:38:10.233Z,101023.13
2023-03-15T22:40:15.958Z,101020.75
2023-03-15T22:42:21.812Z,101018.38
2023-03-15T22:44:30.786Z,101002.59
2023-03-15T22:46:49.203Z,100997.31
2023-03-15T22:48:50.993Z,100998.59
2023-03-15T22:51:07.210Z,100992.19
2023-03-15T22:53:09.012Z,100995.00
2023-03-15T22:55:17.991Z,100997.97
2023-03-15T22:57:22.546Z,100999.03
2023-03-15T22:59:45.663Z,100982.69
2023-03-15T23:02:14.950Z,100988.34
2023-03-15T23:09:25.373Z,100979.41
2023-03-15T23:11:29.402Z,100980.91
2023-03-15T23:13:31.876Z,100975.13
2023-03-15T23:15:40.267Z,100977.81
2023-03-15T23:17:46.901Z,100972.00
2023-03-15T23:19:50.320Z,100975.63
2023-03-15T23:21:52.173Z,100969.84
2023-03-15T23:23:54.379Z,100970.34
2023-03-15T23:25:56.093Z,100963.53
2023-03-15T23:28:03.768Z,100959.16
2023-03-15T23:30:07.759Z,100959.06
2023-03-15T23:32:09.642Z,100958.13
2023-03-15T23:34:11.657Z,100946.84
2023-03-15T23:36:15.779Z,100943.56
2023-03-15T23:38:17.462Z,100945.56
2023-03-15T23:40:20.879Z,100949.88
2023-03-15T23:42:25.970Z,100944.28
2023-03-15T23:44:27.745Z,100938.63
2023-03-15T23:46:29.630Z,100937.41
2023-03-15T23:48:34.602Z,100930.75
2023-03-15T23:50:38.113Z,100933.59
2023-03-15T23:52:40.280Z,100933.59
2023-03-15T23:54:42.475Z,100931.06
2023-03-15T23:56:44.109Z,100927.38
2023-03-15T23:58:45.791Z,100919.78
